Time;durP1;ratioP1;P1;durP2;ratioP2;P2;SDS_P1;SDS_P2;PMS_P1;PMS_P2;Temp;Humidity;BMP_temperature;BMP_pressure;BME280_temperature;BME280_humidity;BME280_pressure;Samples;Min_cycle;Max_cycle;Signal;HPM_P1;HPM_P2
2023/10/22 00:00:53;;;;;;;6.80;3.90;;;;;;;14.06;100.00;95605.67;108273;1278;22539;-79
2023/10/22 00:03:45;;;;;;;5.60;4.00;;;;;;;14.10;100.00;95591.14;108283;1278;23816;-79
2023/10/22 00:06:16;;;;;;;7.90;4.00;;;;;;;14.12;100.00;95592.00;108263;1278;22551;-79
2023/10/22 00:08:47;;;;;;;10.00;4.50;;;;;;;14.18;100.00;95591.50;108230;1278;26677;-79
2023/10/22 00:11:19;;;;;;;7.00;3.80;;;;;;;14.24;100.00;95599.38;108266;1274;25285;-78
2023/10/22 00:13:49;;;;;;;6.60;3.70;;;;;;;14.27;100.00;95599.61;108244;1278;22533;-79
2023/10/22 00:16:22;;;;;;;9.70;3.90;;;;;;;14.22;100.00;95595.25;108245;1278;22533;-79
2023/10/22 00:18:53;;;;;;;5.80;3.80;;;;;;;14.12;100.00;95593.96;108221;1269;22549;-79
2023/10/22 00:21:24;;;;;;;7.40;3.90;;;;;;;14.08;100.00;95592.85;108241;1278;22481;-79
2023/10/22 00:23:55;;;;;;;8.40;4.70;;;;;;;14.10;100.00;95593.30;108282;1278;22520;-79
2023/10/22 00:26:26;;;;;;;7.40;4.50;;;;;;;14.13;100.00;95596.08;108267;1278;22537;-78
2023/10/22 00:29:05;;;;;;;9.40;4.20;;;;;;;14.17;100.00;95599.26;108236;1278;22536;-78
2023/10/22 00:31:37;;;;;;;8.90;4.30;;;;;;;14.20;100.00;95598.91;108315;1278;22540;-79
2023/10/22 00:34:08;;;;;;;7.40;4.40;;;;;;;14.23;100.00;95597.59;108292;1278;26312;-78
2023/10/22 00:36:42;;;;;;;7.50;4.20;;;;;;;14.27;100.00;95597.79;108285;1278;22553;-79
2023/10/22 00:39:13;;;;;;;7.80;4.80;;;;;;;14.29;100.00;95599.90;108225;1278;22529;-78
2023/10/22 00:41:44;;;;;;;9.30;4.40;;;;;;;14.29;100.00;95598.20;108218;1278;22550;-78
2023/10/22 00:44:20;;;;;;;6.80;4.20;;;;;;;14.28;100.00;95595.30;108226;1271;22520;-78
2023/10/22 00:46:51;;;;;;;8.60;4.30;;;;;;;14.28;100.00;95601.01;108238;1270;22522;-78
2023/10/22 00:49:23;;;;;;;8.00;3.80;;;;;;;14.27;100.00;95591.33;108241;1272;25425;-77
2023/10/22 00:51:54;;;;;;;6.60;3.70;;;;;;;14.25;100.00;95590.11;108287;1278;22648;-77
2023/10/22 00:54:28;;;;;;;8.00;4.30;;;;;;;14.24;100.00;95589.47;108274;1278;22520;-77
2023/10/22 00:57:00;;;;;;;7.50;3.00;;;;;;;14.25;100.00;95591.17;108300;1278;25411;-77
2023/10/22 00:59:32;;;;;;;8.20;3.60;;;;;;;14.25;100.00;95590.18;108231;1278;22583;-78
2023/10/22 01:02:05;;;;;;;6.20;4.10;;;;;;;14.24;100.00;95588.02;108242;1277;22537;-77
2023/10/22 01:04:36;;;;;;;7.20;4.00;;;;;;;14.26;100.00;95585.18;108259;1278;22533;-78
2023/10/22 01:07:07;;;;;;;9.40;4.90;;;;;;;14.26;100.00;95575.84;108206;1274;22534;-78
2023/10/22 01:09:39;;;;;;;6.20;4.40;;;;;;;14.24;100.00;95568.95;108255;1277;22525;-78
2023/10/22 01:12:10;;;;;;;8.50;4.70;;;;;;;14.16;100.00;95564.64;108271;1277;22535;-78
2023/10/22 01:14:41;;;;;;;6.40;4.60;;;;;;;14.15;100.00;95558.64;108231;1278;22524;-78
2023/10/22 01:17:12;;;;;;;9.50;4.80;;;;;;;14.19;100.00;95561.39;108209;1276;22602;-77
2023/10/22 01:19:43;;;;;;;8.70;4.60;;;;;;;14.22;100.00;95560.83;108186;1278;22563;-78
2023/10/22 01:22:14;;;;;;;6.20;4.30;;;;;;;14.18;100.00;95556.04;108153;1277;22629;-78
2023/10/22 01:24:45;;;;;;;5.40;3.90;;;;;;;14.14;100.00;95556.56;108173;1277;25355;-78
2023/10/22 01:27:16;;;;;;;6.10;3.90;;;;;;;14.15;100.00;95550.05;108161;1278;22630;-78
2023/10/22 01:29:48;;;;;;;6.00;4.00;;;;;;;14.19;100.00;95557.88;108244;1278;25220;-78
2023/10/22 01:32:21;;;;;;;8.50;4.40;;;;;;;14.18;100.00;95555.34;108149;1277;22521;-78
2023/10/22 01:34:52;;;;;;;7.70;4.30;;;;;;;14.14;100.00;95551.02;108087;1278;22544;-78
2023/10/22 01:37:24;;;;;;;6.50;4.10;;;;;;;14.14;100.00;95551.91;108070;1278;22583;-78
2023/10/22 01:39:57;;;;;;;7.00;4.60;;;;;;;14.12;100.00;95549.52;108073;1274;25364;-78
2023/10/22 01:42:29;;;;;;;10.40;4.90;;;;;;;14.13;100.00;95549.16;108075;1272;22540;-78
2023/10/22 01:45:00;;;;;;;6.60;4.10;;;;;;;14.17;100.00;95545.02;108026;1271;25407;-78
2023/10/22 01:47:33;;;;;;;6.90;4.70;;;;;;;14.22;100.00;95542.03;108080;1273;24653;-78
2023/10/22 01:50:06;;;;;;;7.60;4.40;;;;;;;14.24;100.00;95541.95;108104;1278;22529;-78
2023/10/22 01:52:37;;;;;;;8.40;5.00;;;;;;;14.25;100.00;95530.47;108153;1277;22527;-78
2023/10/22 01:55:09;;;;;;;7.80;4.60;;;;;;;14.24;100.00;95531.29;108168;1278;25416;-78
2023/10/22 01:57:41;;;;;;;8.40;4.80;;;;;;;14.24;100.00;95527.38;108157;1278;22952;-78
2023/10/22 02:00:13;;;;;;;7.50;5.10;;;;;;;14.21;100.00;95524.15;108189;1278;22531;-78
2023/10/22 02:02:44;;;;;;;6.30;4.80;;;;;;;14.22;100.00;95529.90;108128;1278;22523;-78
2023/10/22 02:05:16;;;;;;;7.40;4.90;;;;;;;14.22;100.00;95527.61;108124;1271;22529;-78
2023/10/22 02:07:47;;;;;;;8.20;4.90;;;;;;;14.22;100.00;95528.54;108100;1278;22641;-78
2023/10/22 02:10:20;;;;;;;7.20;4.80;;;;;;;14.25;100.00;95530.69;108135;1277;23439;-78
2023/10/22 02:12:51;;;;;;;9.20;5.60;;;;;;;14.30;100.00;95530.39;108200;1278;25271;-78
2023/10/22 02:15:26;;;;;;;7.30;5.00;;;;;;;14.33;100.00;95529.13;108144;1278;22538;-78
2023/10/22 02:18:00;;;;;;;8.60;4.90;;;;;;;14.35;100.00;95528.95;108136;1277;22543;-78
2023/10/22 02:20:33;;;;;;;7.40;5.00;;;;;;;14.36;100.00;95529.55;108174;1278;25248;-78
2023/10/22 02:23:05;;;;;;;6.80;4.40;;;;;;;14.37;100.00;95526.91;108164;1278;23337;-78
2023/10/22 02:25:36;;;;;;;8.40;5.10;;;;;;;14.34;100.00;95523.76;108223;1278;22532;-78
2023/10/22 02:28:07;;;;;;;6.90;4.70;;;;;;;14.34;100.00;95518.26;108139;1278;22518;-78
2023/10/22 02:30:38;;;;;;;8.50;4.90;;;;;;;14.35;100.00;95516.03;108168;1258;26449;-78
2023/10/22 02:33:09;;;;;;;9.00;5.40;;;;;;;14.34;100.00;95516.80;108188;1278;22546;-78
2023/10/22 02:35:42;;;;;;;10.40;7.20;;;;;;;14.28;100.00;95514.94;108172;1278;25244;-78
2023/10/22 02:38:15;;;;;;;8.10;6.40;;;;;;;14.22;100.00;95514.59;108140;1277;22527;-78
2023/10/22 02:40:48;;;;;;;8.60;5.40;;;;;;;14.21;100.00;95511.05;108183;1278;27612;-78
2023/10/22 02:43:20;;;;;;;5.70;4.40;;;;;;;14.23;100.00;95510.67;108211;1278;22513;-78
2023/10/22 02:45:54;;;;;;;7.50;4.70;;;;;;;14.18;100.00;95508.65;108219;1277;22543;-78
2023/10/22 02:48:26;;;;;;;6.70;5.00;;;;;;;14.10;100.00;95497.73;108154;1277;28991;-78
2023/10/22 02:50:57;;;;;;;7.10;5.10;;;;;;;14.08;100.00;95500.39;108181;1277;22541;-78
2023/10/22 02:53:33;;;;;;;7.60;5.10;;;;;;;14.05;100.00;95505.98;108141;1278;22618;-78
2023/10/22 02:56:07;;;;;;;7.80;5.40;;;;;;;14.06;100.00;95517.35;108183;1278;22697;-78
2023/10/22 02:58:40;;;;;;;7.80;5.10;;;;;;;14.08;100.00;95510.41;108194;1277;28536;-78
2023/10/22 03:01:12;;;;;;;8.90;5.50;;;;;;;14.05;100.00;95504.14;108151;1278;22533;-78
2023/10/22 03:03:44;;;;;;;10.30;6.20;;;;;;;13.96;100.00;95503.52;108207;1278;22531;-78
2023/10/22 03:06:15;;;;;;;8.00;6.20;;;;;;;13.89;100.00;95502.14;108186;1278;22528;-78
2023/10/22 03:08:47;;;;;;;9.70;6.30;;;;;;;13.84;100.00;95494.59;108173;1278;23287;-78
2023/10/22 03:11:19;;;;;;;8.70;6.50;;;;;;;13.81;100.00;95491.21;108163;1270;22573;-78
2023/10/22 03:13:52;;;;;;;8.00;4.90;;;;;;;13.80;100.00;95489.49;108182;1278;25408;-78
2023/10/22 03:16:23;;;;;;;8.00;5.50;;;;;;;13.79;100.00;95491.65;108159;1277;22584;-78
2023/10/22 03:18:54;;;;;;;8.70;5.20;;;;;;;13.77;100.00;95498.59;108132;1278;22699;-78
2023/10/22 03:21:28;;;;;;;8.50;5.30;;;;;;;13.74;100.00;95499.09;108135;1278;25491;-78
2023/10/22 03:24:03;;;;;;;7.70;6.20;;;;;;;13.73;100.00;95497.75;108163;1278;22515;-78
2023/10/22 03:26:36;;;;;;;9.60;6.10;;;;;;;13.78;100.00;95499.73;108128;1278;22850;-78
2023/10/22 03:29:07;;;;;;;12.60;6.20;;;;;;;13.79;100.00;95504.07;108165;1278;24917;-78
2023/10/22 03:31:38;;;;;;;9.00;6.70;;;;;;;13.75;100.00;95512.30;108162;1275;22532;-78
2023/10/22 03:34:09;;;;;;;9.40;6.70;;;;;;;13.77;100.00;95517.59;108182;1278;22544;-78
2023/10/22 03:36:44;;;;;;;8.50;6.30;;;;;;;13.81;100.00;95512.80;108174;1278;22594;-78
2023/10/22 03:39:15;;;;;;;7.70;5.80;;;;;;;13.78;100.00;95510.65;108385;1278;22984;-78
2023/10/22 03:41:47;;;;;;;10.20;6.80;;;;;;;13.73;100.00;95508.34;108200;1278;22528;-78
2023/10/22 03:44:18;;;;;;;9.30;6.00;;;;;;;13.71;100.00;95508.27;108162;1278;22533;-78
2023/10/22 03:46:49;;;;;;;10.70;6.50;;;;;;;13.73;100.00;95508.91;108143;1278;22531;-78
2023/10/22 03:49:20;;;;;;;9.20;6.60;;;;;;;13.76;100.00;95512.08;108169;1278;22644;-79
2023/10/22 03:51:51;;;;;;;8.60;6.80;;;;;;;13.78;100.00;95507.05;108188;1278;25387;-79
2023/10/22 03:54:23;;;;;;;7.40;5.80;;;;;;;13.77;100.00;95514.57;108166;1278;24397;-78
2023/10/22 03:56:54;;;;;;;8.40;6.30;;;;;;;13.71;100.00;95504.45;108114;1278;22537;-79
2023/10/22 03:59:25;;;;;;;7.20;6.10;;;;;;;13.66;100.00;95506.33;108133;1278;22628;-78
2023/10/22 04:01:57;;;;;;;7.20;5.30;;;;;;;13.61;100.00;95506.53;108172;1278;22598;-78
2023/10/22 04:04:28;;;;;;;8.10;6.00;;;;;;;13.56;100.00;95500.33;108167;1278;22533;-78
2023/10/22 04:07:00;;;;;;;6.90;5.40;;;;;;;13.53;100.00;95489.41;108129;1273;22534;-79
2023/10/22 04:09:33;;;;;;;7.40;5.10;;;;;;;13.53;100.00;95482.86;108178;1278;22534;-79
2023/10/22 04:12:05;;;;;;;8.90;6.40;;;;;;;13.52;100.00;95463.38;108185;1278;22535;-78
2023/10/22 04:14:36;;;;;;;6.30;5.00;;;;;;;13.52;100.00;95459.52;108175;1275;23019;-78
2023/10/22 04:17:07;;;;;;;7.60;5.60;;;;;;;13.53;100.00;95466.92;108173;1278;22618;-78
2023/10/22 04:19:38;;;;;;;8.50;5.70;;;;;;;13.53;100.00;95485.77;108166;1276;22975;-78
2023/10/22 04:22:09;;;;;;;9.00;5.20;;;;;;;13.48;100.00;95480.95;108162;1278;22629;-78
2023/10/22 04:24:40;;;;;;;8.50;5.50;;;;;;;13.45;100.00;95470.85;108191;1278;22629;-78
2023/10/22 04:27:11;;;;;;;8.40;5.00;;;;;;;13.44;100.00;95467.32;108159;1278;22521;-78
2023/10/22 04:29:46;;;;;;;5.80;4.80;;;;;;;13.46;100.00;95460.70;108165;1278;22528;-78
2023/10/22 04:32:17;;;;;;;7.30;5.50;;;;;;;13.48;100.00;95467.32;108194;1278;22647;-79
2023/10/22 04:34:48;;;;;;;8.20;5.20;;;;;;;13.49;100.00;95453.27;108137;1278;22578;-79
2023/10/22 04:37:20;;;;;;;6.40;4.20;;;;;;;13.52;100.00;95462.85;108123;1278;22535;-78
2023/10/22 04:39:51;;;;;;;8.30;4.30;;;;;;;13.54;100.00;95473.93;108171;1278;24271;-79
2023/10/22 04:42:22;;;;;;;6.60;4.20;;;;;;;13.55;100.00;95476.33;108159;1278;22547;-79
2023/10/22 04:44:53;;;;;;;6.90;5.00;;;;;;;13.56;100.00;95484.88;108186;1278;23262;-79
2023/10/22 04:47:26;;;;;;;8.70;5.80;;;;;;;13.55;100.00;95492.75;108143;1278;22530;-78
2023/10/22 04:49:59;;;;;;;7.30;5.60;;;;;;;13.55;100.00;95496.04;108257;1278;22566;-78
2023/10/22 04:52:33;;;;;;;6.80;4.40;;;;;;;13.54;100.00;95511.90;108158;1278;23248;-78
2023/10/22 04:55:05;;;;;;;6.20;3.90;;;;;;;13.49;100.00;95522.20;108115;1278;22508;-78
2023/10/22 04:57:37;;;;;;;6.90;4.90;;;;;;;13.45;100.00;95510.63;108154;1278;22583;-79
2023/10/22 05:00:13;;;;;;;8.40;5.90;;;;;;;13.46;100.00;95507.46;108150;1278;22557;-79
2023/10/22 05:02:44;;;;;;;6.70;4.70;;;;;;;13.49;100.00;95513.58;108432;1271;22977;-79
2023/10/22 05:05:15;;;;;;;4.20;3.50;;;;;;;13.52;100.00;95520.34;108115;1278;22528;-79
2023/10/22 05:07:46;;;;;;;4.30;3.30;;;;;;;13.57;100.00;95521.14;108113;1277;22721;-79
2023/10/22 05:10:17;;;;;;;3.90;3.10;;;;;;;13.63;100.00;95523.50;108153;1277;22539;-78
2023/10/22 05:12:48;;;;;;;4.40;2.90;;;;;;;13.69;100.00;95511.68;108180;1278;22552;-79
2023/10/22 05:15:21;;;;;;;4.70;3.30;;;;;;;13.73;100.00;95510.01;108122;1270;22683;-79
2023/10/22 05:17:52;;;;;;;6.20;4.10;;;;;;;13.75;100.00;95505.65;108064;1278;22997;-79
2023/10/22 05:20:23;;;;;;;4.70;4.00;;;;;;;13.77;100.00;95502.76;108163;1278;22540;-78
2023/10/22 05:22:54;;;;;;;5.90;4.40;;;;;;;13.79;100.00;95491.02;108109;1258;24196;-79
2023/10/22 05:25:26;;;;;;;8.30;4.20;;;;;;;13.80;100.00;95485.98;108177;1270;22540;-79
2023/10/22 05:27:57;;;;;;;6.30;3.40;;;;;;;13.77;100.00;95476.75;108161;1278;22545;-79
2023/10/22 05:30:34;;;;;;;5.90;3.70;;;;;;;13.73;100.00;95464.13;108431;1271;22573;-79
2023/10/22 05:33:05;;;;;;;3.60;2.90;;;;;;;13.75;100.00;95448.03;108197;1277;22579;-79
2023/10/22 05:35:38;;;;;;;7.10;3.90;;;;;;;13.76;100.00;95425.11;108222;1273;22571;-79
2023/10/22 05:38:09;;;;;;;4.90;3.40;;;;;;;13.77;100.00;95403.05;108195;1277;25247;-79
2023/10/22 05:40:40;;;;;;;4.20;3.40;;;;;;;13.77;100.00;95422.46;108170;1278;22532;-79
2023/10/22 05:43:11;;;;;;;3.70;3.30;;;;;;;13.76;100.00;95460.05;108186;1270;22531;-79
2023/10/22 05:45:42;;;;;;;3.50;2.70;;;;;;;13.68;100.00;95488.66;108189;1276;22531;-79
2023/10/22 05:48:13;;;;;;;5.50;2.30;;;;;;;13.59;100.00;95497.39;108142;1278;34194;-79
2023/10/22 05:50:44;;;;;;;4.40;2.30;;;;;;;13.55;100.00;95502.27;108188;1271;23562;-79
2023/10/22 05:53:15;;;;;;;2.60;2.20;;;;;;;13.54;100.00;95511.44;108193;1278;22537;-79
2023/10/22 05:55:46;;;;;;;5.00;3.20;;;;;;;13.54;100.00;95515.02;108199;1269;25184;-79
2023/10/22 05:58:17;;;;;;;10.00;7.60;;;;;;;13.57;100.00;95504.61;108184;1272;23324;-78
2023/10/22 06:00:51;;;;;;;3.90;3.50;;;;;;;13.61;100.00;95507.52;108175;1276;22589;-79
2023/10/22 06:03:23;;;;;;;2.60;2.00;;;;;;;13.63;100.00;95506.08;108202;1278;22662;-78
2023/10/22 06:05:54;;;;;;;3.20;1.50;;;;;;;13.67;100.00;95509.11;108186;1278;23066;-78
2023/10/22 06:08:27;;;;;;;3.40;2.00;;;;;;;13.73;100.00;95502.23;108190;1278;22583;-78
2023/10/22 06:11:03;;;;;;;3.50;2.70;;;;;;;13.78;100.00;95506.39;108190;1270;22587;-78
2023/10/22 06:13:34;;;;;;;4.60;2.90;;;;;;;13.78;100.00;95509.58;108204;1278;23821;-78
2023/10/22 06:16:07;;;;;;;4.50;3.30;;;;;;;13.81;100.00;95513.37;108206;1278;22579;-78
2023/10/22 06:18:38;;;;;;;3.30;2.90;;;;;;;13.85;100.00;95517.52;108137;1278;25288;-78
2023/10/22 06:21:17;;;;;;;4.60;3.50;;;;;;;14.08;100.00;95525.75;108154;1278;25495;-79
2023/10/22 06:23:49;;;;;;;2.80;2.50;;;;;;;14.27;100.00;95519.09;108190;1278;22708;-78
2023/10/22 06:26:21;;;;;;;4.90;4.00;;;;;;;14.34;100.00;95511.48;108235;1278;25429;-78
2023/10/22 06:28:52;;;;;;;10.30;6.70;;;;;;;14.27;100.00;95514.67;108159;1278;27718;-78
2023/10/22 06:31:24;;;;;;;4.10;3.00;;;;;;;14.23;100.00;95523.55;108181;1270;22649;-78
2023/10/22 06:33:56;;;;;;;4.40;3.90;;;;;;;14.20;100.00;95523.75;108136;1278;22613;-79
2023/10/22 06:36:29;;;;;;;11.30;7.40;;;;;;;14.19;100.00;95528.12;108157;1277;22538;-78
2023/10/22 06:39:03;;;;;;;30.30;23.30;;;;;;;14.15;100.00;95533.55;108191;1277;22529;-78
2023/10/22 06:41:35;;;;;;;19.10;14.40;;;;;;;14.13;100.00;95534.92;108324;1278;22554;-78
2023/10/22 06:44:07;;;;;;;5.40;4.10;;;;;;;14.13;100.00;95537.95;108195;1270;22606;-78
2023/10/22 06:46:38;;;;;;;6.00;3.60;;;;;;;14.15;100.00;95539.85;108212;1278;25328;-78
2023/10/22 06:49:10;;;;;;;4.70;3.20;;;;;;;14.14;100.00;95539.05;108155;1278;22643;-78
2023/10/22 06:51:41;;;;;;;3.90;3.20;;;;;;;14.13;100.00;95537.56;108134;1270;23278;-78
2023/10/22 06:54:14;;;;;;;5.40;4.00;;;;;;;14.14;100.00;95542.56;108151;1278;22537;-78
2023/10/22 06:56:45;;;;;;;6.60;3.50;;;;;;;14.12;100.00;95534.65;108144;1278;25366;-79
2023/10/22 06:59:16;;;;;;;3.90;2.90;;;;;;;14.15;100.00;95530.64;108144;1277;22524;-79
2023/10/22 07:01:47;;;;;;;3.60;2.90;;;;;;;14.19;100.00;95521.85;108158;1278;22532;-79
2023/10/22 07:04:19;;;;;;;3.50;3.00;;;;;;;14.19;100.00;95519.90;108132;1278;22527;-79
2023/10/22 07:06:50;;;;;;;5.30;3.50;;;;;;;14.20;100.00;95521.89;108116;1278;24736;-79
2023/10/22 07:09:21;;;;;;;4.30;3.60;;;;;;;14.16;100.00;95525.27;108169;1276;22630;-79
2023/10/22 07:11:55;;;;;;;5.70;3.80;;;;;;;14.18;100.00;95512.16;108055;1270;22552;-79
2023/10/22 07:14:29;;;;;;;5.90;4.60;;;;;;;14.22;100.00;95510.95;108149;1275;22546;-79
2023/10/22 07:17:03;;;;;;;7.20;4.40;;;;;;;14.27;100.00;95505.14;108236;1277;24349;-79
2023/10/22 07:19:36;;;;;;;4.80;4.10;;;;;;;14.33;100.00;95499.05;108152;1276;24653;-79
2023/10/22 07:22:07;;;;;;;6.00;4.50;;;;;;;14.41;100.00;95509.59;108197;1278;25407;-79
2023/10/22 07:24:39;;;;;;;6.00;3.70;;;;;;;14.48;100.00;95522.21;108152;1278;24375;-79
2023/10/22 07:27:12;;;;;;;5.20;3.60;;;;;;;14.54;100.00;95524.94;108105;1277;24291;-79
2023/10/22 07:29:44;;;;;;;4.80;2.60;;;;;;;14.53;100.00;95528.57;108226;1278;25432;-79
2023/10/22 07:32:16;;;;;;;5.40;2.90;;;;;;;14.53;100.00;95536.11;108186;1278;22534;-79
2023/10/22 07:34:47;;;;;;;4.30;3.70;;;;;;;14.54;100.00;95544.00;108169;1278;25300;-79
2023/10/22 07:37:18;;;;;;;5.80;4.20;;;;;;;14.52;100.00;95547.66;108138;1278;22543;-79
2023/10/22 07:39:49;;;;;;;4.30;3.50;;;;;;;14.50;100.00;95553.23;108106;1273;22531;-79
2023/10/22 07:42:20;;;;;;;4.60;3.50;;;;;;;14.48;100.00;95554.36;108150;1278;24377;-79
2023/10/22 07:44:55;;;;;;;3.30;1.90;;;;;;;14.46;100.00;95558.11;108146;1276;22535;-79
2023/10/22 07:47:27;;;;;;;1.90;1.30;;;;;;;14.47;100.00;95559.58;108136;1278;24073;-79
2023/10/22 07:49:59;;;;;;;2.00;1.40;;;;;;;14.42;100.00;95550.94;108192;1275;22640;-80
2023/10/22 07:52:32;;;;;;;1.80;1.40;;;;;;;14.35;100.00;95540.61;108102;1277;22531;-80
2023/10/22 07:55:03;;;;;;;3.60;1.60;;;;;;;14.33;100.00;95543.89;108145;1278;24336;-80
2023/10/22 07:57:34;;;;;;;7.40;5.30;;;;;;;14.31;100.00;95534.14;108142;1278;22536;-80
2023/10/22 08:00:07;;;;;;;4.90;2.60;;;;;;;14.31;100.00;95526.70;108112;1278;22551;-80
2023/10/22 08:02:38;;;;;;;4.40;1.90;;;;;;;14.37;100.00;95526.23;108229;1278;22532;-80
2023/10/22 08:05:10;;;;;;;4.70;2.30;;;;;;;14.43;100.00;95529.05;108104;1278;26098;-80
2023/10/22 08:07:41;;;;;;;3.90;2.20;;;;;;;14.45;100.00;95525.31;108054;1278;24388;-80
2023/10/22 08:10:14;;;;;;;3.30;2.30;;;;;;;14.48;100.00;95513.98;108137;1278;22532;-79
2023/10/22 08:12:45;;;;;;;3.00;2.10;;;;;;;14.52;100.00;95510.64;108099;1278;22556;-80
2023/10/22 08:15:17;;;;;;;5.90;2.30;;;;;;;14.50;100.00;95514.50;108192;1278;25697;-80
2023/10/22 08:17:48;;;;;;;3.10;2.30;;;;;;;14.44;100.00;95517.13;108112;1270;22926;-80
2023/10/22 08:20:19;;;;;;;3.00;2.40;;;;;;;14.41;100.00;95524.33;108156;1277;22539;-80
2023/10/22 08:22:51;;;;;;;2.80;2.40;;;;;;;14.39;100.00;95527.30;108130;1267;22652;-81
2023/10/22 08:25:22;;;;;;;2.60;1.90;;;;;;;14.41;100.00;95523.77;108103;1270;25216;-80
2023/10/22 08:27:53;;;;;;;2.50;1.90;;;;;;;14.43;100.00;95523.15;107748;1276;212455;-81
2023/10/22 08:30:24;;;;;;;2.40;1.90;;;;;;;14.43;100.00;95517.29;107927;1279;23359;-80
2023/10/22 08:32:56;;;;;;;2.40;1.80;;;;;;;14.46;100.00;95513.54;107941;1277;22581;-80
2023/10/22 08:35:33;;;;;;;1.90;1.60;;;;;;;14.53;100.00;95518.52;107886;1273;22534;-80
2023/10/22 08:38:06;;;;;;;3.10;1.60;;;;;;;14.57;100.00;95514.75;107978;1276;29638;-80
2023/10/22 08:40:41;;;;;;;1.80;1.00;;;;;;;14.69;100.00;95517.73;108099;1279;22527;-80
2023/10/22 08:43:19;;;;;;;1.80;1.40;;;;;;;14.84;100.00;95517.70;107998;1279;22525;-79
2023/10/22 08:45:51;;;;;;;1.20;1.10;;;;;;;15.09;100.00;95515.91;108169;1279;25242;-80
2023/10/22 08:48:25;;;;;;;1.50;1.10;;;;;;;15.28;100.00;95515.13;107989;1279;22574;-79
2023/10/22 08:50:57;;;;;;;1.50;1.20;;;;;;;15.34;100.00;95514.23;107966;1279;24165;-79
2023/10/22 08:53:32;;;;;;;1.50;1.20;;;;;;;15.26;100.00;95515.76;107981;1279;22549;-79
2023/10/22 08:56:04;;;;;;;2.80;1.50;;;;;;;15.16;100.00;95518.05;108024;1279;24301;-79
2023/10/22 08:58:35;;;;;;;1.60;1.20;;;;;;;15.09;100.00;95516.77;107943;1279;22580;-79
2023/10/22 09:01:06;;;;;;;1.70;1.30;;;;;;;15.11;100.00;95520.48;107913;1279;22666;-79
2023/10/22 09:03:37;;;;;;;1.60;1.50;;;;;;;15.26;100.00;95522.16;107955;1279;22524;-78
2023/10/22 09:06:08;;;;;;;1.50;1.10;;;;;;;15.45;100.00;95526.40;107906;1279;22543;-79
2023/10/22 09:08:46;;;;;;;1.70;1.60;;;;;;;15.49;100.00;95528.90;107936;1279;22529;-79
2023/10/22 09:11:20;;;;;;;1.50;1.40;;;;;;;15.65;100.00;95527.73;107994;1279;22524;-79
2023/10/22 09:13:53;;;;;;;2.80;1.90;;;;;;;15.68;100.00;95531.55;108032;1279;22539;-79
2023/10/22 09:16:36;;;;;;;1.80;1.70;;;;;;;15.75;100.00;95537.48;107999;1279;22548;-79
2023/10/22 09:19:07;;;;;;;1.70;1.60;;;;;;;15.85;100.00;95535.03;107930;1279;22542;-79
2023/10/22 09:21:45;;;;;;;1.60;1.40;;;;;;;15.85;100.00;95533.34;107997;1279;24237;-79
2023/10/22 09:24:17;;;;;;;1.90;1.40;;;;;;;15.82;100.00;95536.48;108008;1279;22550;-79
2023/10/22 09:26:49;;;;;;;1.30;1.20;;;;;;;15.79;100.00;95533.25;108126;1278;22686;-78
2023/10/22 09:29:21;;;;;;;1.80;1.10;;;;;;;15.71;100.00;95540.65;108150;1278;25971;-78
2023/10/22 09:31:54;;;;;;;1.40;1.20;;;;;;;15.58;100.00;95542.52;108135;1278;22535;-78
2023/10/22 09:34:30;;;;;;;1.50;0.90;;;;;;;15.41;100.00;95543.70;108312;1277;22583;-79
2023/10/22 09:37:04;;;;;;;1.50;1.10;;;;;;;15.29;100.00;95547.44;108154;1278;25397;-80
2023/10/22 09:39:39;;;;;;;2.50;1.70;;;;;;;15.21;100.00;95547.48;108125;1278;22535;-78
2023/10/22 09:42:14;;;;;;;4.70;2.80;;;;;;;15.12;100.00;95548.41;108168;1278;22588;-79
2023/10/22 09:44:45;;;;;;;5.40;3.00;;;;;;;15.07;100.00;95546.52;108298;1278;22539;-78
2023/10/22 09:47:21;;;;;;;2.80;1.70;;;;;;;15.05;100.00;95548.27;108133;1278;23878;-78
2023/10/22 09:50:07;;;;;;;2.20;1.90;;;;;;;15.06;100.00;95550.64;108138;1271;22544;-79
2023/10/22 09:52:40;;;;;;;8.00;4.90;;;;;;;15.10;100.00;95551.88;108642;1273;22529;-78
2023/10/22 09:55:14;;;;;;;5.30;3.00;;;;;;;15.11;100.00;95557.23;108235;1270;22628;-78
2023/10/22 09:57:47;;;;;;;7.00;3.90;;;;;;;15.11;100.00;95559.52;107884;1270;23667;-78
2023/10/22 10:00:19;;;;;;;3.30;2.20;;;;;;;15.10;100.00;95561.33;108115;1276;25286;-78
2023/10/22 10:02:53;;;;;;;2.50;1.60;;;;;;;15.06;100.00;95566.21;108104;1276;22554;-78
2023/10/22 10:05:24;;;;;;;2.10;1.00;;;;;;;15.03;100.00;95568.39;108037;1268;22526;-78
2023/10/22 10:08:02;;;;;;;2.70;1.30;;;;;;;14.96;100.00;95575.45;108057;1277;22577;-77
2023/10/22 10:10:37;;;;;;;2.20;1.20;;;;;;;14.92;100.00;95578.03;108065;1271;22625;-77
2023/10/22 10:13:08;;;;;;;1.90;1.40;;;;;;;14.91;100.00;95584.02;108114;1278;25271;-78
2023/10/22 10:15:39;;;;;;;2.10;1.00;;;;;;;14.93;100.00;95582.86;108162;1277;25479;-78
2023/10/22 10:18:11;;;;;;;2.40;1.40;;;;;;;14.92;100.00;95582.08;108135;1278;22712;-78
2023/10/22 10:20:45;;;;;;;1.80;1.20;;;;;;;14.93;100.00;95591.80;108124;1278;23843;-78
2023/10/22 10:23:20;;;;;;;2.00;1.50;;;;;;;14.92;100.00;95591.00;108081;1270;23378;-78
2023/10/22 10:25:53;;;;;;;2.70;1.70;;;;;;;14.88;100.00;95595.52;108181;1278;22539;-78
2023/10/22 10:28:42;;;;;;;3.60;2.30;;;;;;;14.88;100.00;95598.31;108174;1274;22551;-78
2023/10/22 10:31:34;;;;;;;3.10;1.00;;;;;;;14.93;100.00;95596.36;108134;1270;25462;-79
2023/10/22 10:34:22;;;;;;;3.20;1.40;;;;;;;14.92;100.00;95598.91;108132;1277;22620;-78
2023/10/22 10:36:55;;;;;;;1.40;1.10;;;;;;;14.88;100.00;95597.56;108216;1277;22530;-79
2023/10/22 10:39:47;;;;;;;1.90;1.30;;;;;;;14.89;100.00;95603.01;108142;1278;25377;-79
2023/10/22 10:42:51;;;;;;;2.30;1.70;;;;;;;14.90;100.00;95605.95;108107;1277;22575;-79
2023/10/22 10:45:24;;;;;;;3.80;1.90;;;;;;;14.88;100.00;95608.77;108132;1278;22606;-79
2023/10/22 10:47:57;;;;;;;2.70;1.40;;;;;;;14.88;100.00;95611.38;108142;1272;25356;-79
2023/10/22 10:50:35;;;;;;;2.00;1.30;;;;;;;14.87;100.00;95618.65;108129;1277;22542;-79
2023/10/22 10:53:06;;;;;;;2.80;1.40;;;;;;;14.84;100.00;95617.51;108137;1278;22563;-78
2023/10/22 10:55:37;;;;;;;1.70;1.20;;;;;;;14.83;100.00;95615.73;108131;1268;22643;-78
2023/10/22 10:58:11;;;;;;;1.60;0.90;;;;;;;14.76;100.00;95612.50;108130;1278;22563;-79
2023/10/22 11:00:42;;;;;;;1.10;0.70;;;;;;;14.67;100.00;95620.04;108153;1278;23499;-79
2023/10/22 11:03:23;;;;;;;1.20;0.80;;;;;;;14.59;100.00;95620.59;108120;1276;22934;-80
2023/10/22 11:05:54;;;;;;;1.30;0.90;;;;;;;14.53;100.00;95624.27;108134;1277;22568;-79
2023/10/22 11:08:25;;;;;;;1.60;0.80;;;;;;;14.50;100.00;95625.84;108248;1277;25245;-78
2023/10/22 11:11:00;;;;;;;2.40;1.30;;;;;;;14.49;100.00;95624.02;108310;1270;22537;-79
2023/10/22 11:13:31;;;;;;;1.90;0.90;;;;;;;14.50;100.00;95624.08;108226;1276;22554;-78
2023/10/22 11:16:07;;;;;;;1.00;0.60;;;;;;;14.50;100.00;95623.46;108267;1277;25273;-79
2023/10/22 11:18:56;;;;;;;2.80;0.90;;;;;;;14.45;100.00;95625.66;108225;1277;25359;-78
2023/10/22 11:21:31;;;;;;;1.40;0.90;;;;;;;14.44;100.00;95628.13;108281;1277;22524;-78
2023/10/22 11:24:03;;;;;;;1.40;0.80;;;;;;;14.44;100.00;95630.48;108194;1271;25444;-77
2023/10/22 11:26:35;;;;;;;1.10;0.90;;;;;;;14.44;100.00;95633.93;108221;1278;22545;-77
2023/10/22 11:29:08;;;;;;;1.10;0.90;;;;;;;14.45;100.00;95633.35;108249;1277;22545;-77
2023/10/22 11:31:39;;;;;;;1.60;0.90;;;;;;;14.46;100.00;95635.89;108299;1277;22524;-78
2023/10/22 11:34:17;;;;;;;1.80;0.90;;;;;;;14.46;100.00;95639.71;108141;1254;23432;-78
2023/10/22 11:36:48;;;;;;;1.20;1.00;;;;;;;14.44;100.00;95640.70;108219;1278;22524;-78
2023/10/22 11:39:21;;;;;;;1.50;0.90;;;;;;;14.44;100.00;95642.89;108274;1270;22647;-77
2023/10/22 11:42:07;;;;;;;1.90;0.90;;;;;;;14.44;100.00;95639.86;108218;1278;22654;-78